sensor_id;sensor_type;location;lat;lon;timestamp;temperature;humidity
8994;DHT22;4532;50.886;4.700;2023-07-13T00:01:16;20.00;92.70
8994;DHT22;4532;50.886;4.700;2023-07-13T00:03:44;20.00;92.70
8994;DHT22;4532;50.886;4.700;2023-07-13T00:06:13;19.90;92.70
8994;DHT22;4532;50.886;4.700;2023-07-13T00:08:41;19.90;92.60
8994;DHT22;4532;50.886;4.700;2023-07-13T00:11:10;19.90;92.70
8994;DHT22;4532;50.886;4.700;2023-07-13T00:13:38;19.80;92.80
8994;DHT22;4532;50.886;4.700;2023-07-13T00:16:07;19.80;92.70
8994;DHT22;4532;50.886;4.700;2023-07-13T00:18:35;19.80;92.80
8994;DHT22;4532;50.886;4.700;2023-07-13T00:21:04;19.80;92.80
8994;DHT22;4532;50.886;4.700;2023-07-13T00:23:37;19.80;92.80
8994;DHT22;4532;50.886;4.700;2023-07-13T00:26:06;19.70;92.80
8994;DHT22;4532;50.886;4.700;2023-07-13T00:28:37;19.70;92.80
8994;DHT22;4532;50.886;4.700;2023-07-13T00:31:04;19.70;92.90
8994;DHT22;4532;50.886;4.700;2023-07-13T00:33:35;19.60;92.90
8994;DHT22;4532;50.886;4.700;2023-07-13T00:36:04;19.60;92.90
8994;DHT22;4532;50.886;4.700;2023-07-13T00:38:31;19.60;92.90
8994;DHT22;4532;50.886;4.700;2023-07-13T00:41:02;19.60;92.90
8994;DHT22;4532;50.886;4.700;2023-07-13T00:43:33;19.60;93.10
8994;DHT22;4532;50.886;4.700;2023-07-13T00:48:43;19.60;93.10
8994;DHT22;4532;50.886;4.700;2023-07-13T00:51:12;19.50;93.10
8994;DHT22;4532;50.886;4.700;2023-07-13T00:53:40;19.50;93.10
8994;DHT22;4532;50.886;4.700;2023-07-13T00:56:07;19.50;93.10
8994;DHT22;4532;50.886;4.700;2023-07-13T00:58:41;19.50;93.20
8994;DHT22;4532;50.886;4.700;2023-07-13T01:01:08;19.50;93.20
8994;DHT22;4532;50.886;4.700;2023-07-13T01:03:35;19.50;93.20
8994;DHT22;4532;50.886;4.700;2023-07-13T01:06:05;19.50;93.20
8994;DHT22;4532;50.886;4.700;2023-07-13T01:08:33;19.50;93.30
8994;DHT22;4532;50.886;4.700;2023-07-13T01:11:00;19.50;93.30
8994;DHT22;4532;50.886;4.700;2023-07-13T01:13:29;19.50;93.30
8994;DHT22;4532;50.886;4.700;2023-07-13T01:15:58;19.40;93.30
8994;DHT22;4532;50.886;4.700;2023-07-13T01:18:29;19.40;93.40
8994;DHT22;4532;50.886;4.700;2023-07-13T01:20:59;19.40;93.30
8994;DHT22;4532;50.886;4.700;2023-07-13T01:23:30;19.40;93.40
8994;DHT22;4532;50.886;4.700;2023-07-13T01:25:58;19.40;93.50
8994;DHT22;4532;50.886;4.700;2023-07-13T01:28:28;19.40;93.50
8994;DHT22;4532;50.886;4.700;2023-07-13T01:30:58;19.30;93.50
8994;DHT22;4532;50.886;4.700;2023-07-13T01:33:25;19.30;93.50
8994;DHT22;4532;50.886;4.700;2023-07-13T01:35:58;19.30;93.50
8994;DHT22;4532;50.886;4.700;2023-07-13T01:38:27;19.30;93.50
8994;DHT22;4532;50.886;4.700;2023-07-13T01:40:56;19.20;93.70
8994;DHT22;4532;50.886;4.700;2023-07-13T01:43:24;19.20;93.50
8994;DHT22;4532;50.886;4.700;2023-07-13T01:45:51;19.20;93.60
8994;DHT22;4532;50.886;4.700;2023-07-13T01:48:18;19.10;93.50
8994;DHT22;4532;50.886;4.700;2023-07-13T01:50:47;19.10;93.50
8994;DHT22;4532;50.886;4.700;2023-07-13T01:53:16;19.10;93.70
8994;DHT22;4532;50.886;4.700;2023-07-13T01:55:46;19.10;93.70
8994;DHT22;4532;50.886;4.700;2023-07-13T01:58:15;19.00;93.70
8994;DHT22;4532;50.886;4.700;2023-07-13T02:00:48;19.00;93.80
8994;DHT22;4532;50.886;4.700;2023-07-13T02:03:16;19.00;93.80
8994;DHT22;4532;50.886;4.700;2023-07-13T02:05:45;19.00;93.70
8994;DHT22;4532;50.886;4.700;2023-07-13T02:08:18;19.00;93.80
8994;DHT22;4532;50.886;4.700;2023-07-13T02:10:47;18.90;93.90
8994;DHT22;4532;50.886;4.700;2023-07-13T02:13:14;18.90;93.80
8994;DHT22;4532;50.886;4.700;2023-07-13T02:15:42;18.90;93.80
8994;DHT22;4532;50.886;4.700;2023-07-13T02:18:09;18.90;93.90
8994;DHT22;4532;50.886;4.700;2023-07-13T02:20:44;18.90;94.00
8994;DHT22;4532;50.886;4.700;2023-07-13T02:23:15;18.80;94.30
8994;DHT22;4532;50.886;4.700;2023-07-13T02:25:45;18.80;94.00
8994;DHT22;4532;50.886;4.700;2023-07-13T02:28:12;18.80;94.20
8994;DHT22;4532;50.886;4.700;2023-07-13T02:30:40;18.80;94.00
8994;DHT22;4532;50.886;4.700;2023-07-13T02:33:12;18.80;94.10
8994;DHT22;4532;50.886;4.700;2023-07-13T02:35:42;18.70;94.00
8994;DHT22;4532;50.886;4.700;2023-07-13T02:38:09;18.70;94.10
8994;DHT22;4532;50.886;4.700;2023-07-13T02:40:36;18.70;94.10
8994;DHT22;4532;50.886;4.700;2023-07-13T02:43:09;18.70;94.20
8994;DHT22;4532;50.886;4.700;2023-07-13T02:45:36;18.60;94.10
8994;DHT22;4532;50.886;4.700;2023-07-13T02:48:04;18.60;94.10
8994;DHT22;4532;50.886;4.700;2023-07-13T02:50:34;18.60;94.20
8994;DHT22;4532;50.886;4.700;2023-07-13T02:53:03;18.60;94.30
8994;DHT22;4532;50.886;4.700;2023-07-13T02:55:30;18.60;94.30
8994;DHT22;4532;50.886;4.700;2023-07-13T02:57:58;18.60;94.40
8994;DHT22;4532;50.886;4.700;2023-07-13T03:00:25;18.60;94.30
8994;DHT22;4532;50.886;4.700;2023-07-13T03:02:52;18.60;94.40
8994;DHT22;4532;50.886;4.700;2023-07-13T03:05:25;18.50;94.30
8994;DHT22;4532;50.886;4.700;2023-07-13T03:07:54;18.50;94.30
8994;DHT22;4532;50.886;4.700;2023-07-13T03:10:24;18.50;94.40
8994;DHT22;4532;50.886;4.700;2023-07-13T03:12:54;18.50;94.40
8994;DHT22;4532;50.886;4.700;2023-07-13T03:15:21;18.50;94.50
8994;DHT22;4532;50.886;4.700;2023-07-13T03:17:48;18.50;94.50
8994;DHT22;4532;50.886;4.700;2023-07-13T03:20:16;18.50;94.50
8994;DHT22;4532;50.886;4.700;2023-07-13T03:22:43;18.60;94.60
8994;DHT22;4532;50.886;4.700;2023-07-13T03:25:11;18.50;94.60
8994;DHT22;4532;50.886;4.700;2023-07-13T03:27:38;18.60;94.80
8994;DHT22;4532;50.886;4.700;2023-07-13T03:30:06;18.60;94.80
8994;DHT22;4532;50.886;4.700;2023-07-13T03:32:35;18.60;94.80
8994;DHT22;4532;50.886;4.700;2023-07-13T03:35:05;18.60;94.80
8994;DHT22;4532;50.886;4.700;2023-07-13T03:37:32;18.60;94.80
8994;DHT22;4532;50.886;4.700;2023-07-13T03:40:00;18.70;94.80
8994;DHT22;4532;50.886;4.700;2023-07-13T03:42:29;18.70;94.80
8994;DHT22;4532;50.886;4.700;2023-07-13T03:44:56;18.70;94.90
8994;DHT22;4532;50.886;4.700;2023-07-13T03:47:26;18.70;94.90
8994;DHT22;4532;50.886;4.700;2023-07-13T03:49:56;18.70;95.00
8994;DHT22;4532;50.886;4.700;2023-07-13T03:52:23;18.70;95.00
8994;DHT22;4532;50.886;4.700;2023-07-13T03:54:54;18.70;95.00
8994;DHT22;4532;50.886;4.700;2023-07-13T03:57:22;18.70;95.10
8994;DHT22;4532;50.886;4.700;2023-07-13T03:59:52;18.70;95.10
8994;DHT22;4532;50.886;4.700;2023-07-13T04:02:21;18.70;95.20
8994;DHT22;4532;50.886;4.700;2023-07-13T04:04:49;18.60;95.20
8994;DHT22;4532;50.886;4.700;2023-07-13T04:07:18;18.60;95.20
8994;DHT22;4532;50.886;4.700;2023-07-13T04:09:48;18.60;95.20
8994;DHT22;4532;50.886;4.700;2023-07-13T04:12:20;18.60;95.30
8994;DHT22;4532;50.886;4.700;2023-07-13T04:14:48;18.60;95.30
8994;DHT22;4532;50.886;4.700;2023-07-13T04:17:15;18.60;95.10
8994;DHT22;4532;50.886;4.700;2023-07-13T04:19:45;18.60;95.20
8994;DHT22;4532;50.886;4.700;2023-07-13T04:22:12;18.60;95.40
8994;DHT22;4532;50.886;4.700;2023-07-13T04:24:39;18.60;95.40
8994;DHT22;4532;50.886;4.700;2023-07-13T04:27:07;18.60;95.40
8994;DHT22;4532;50.886;4.700;2023-07-13T04:29:37;18.60;95.40
8994;DHT22;4532;50.886;4.700;2023-07-13T04:32:06;18.60;95.50
8994;DHT22;4532;50.886;4.700;2023-07-13T04:34:38;18.60;95.50
8994;DHT22;4532;50.886;4.700;2023-07-13T04:37:08;18.60;95.60
8994;DHT22;4532;50.886;4.700;2023-07-13T04:39:37;18.70;95.60
8994;DHT22;4532;50.886;4.700;2023-07-13T04:42:07;18.70;95.60
8994;DHT22;4532;50.886;4.700;2023-07-13T04:44:34;18.70;95.70
8994;DHT22;4532;50.886;4.700;2023-07-13T04:47:03;18.70;95.70
8994;DHT22;4532;50.886;4.700;2023-07-13T04:49:31;18.70;95.80
8994;DHT22;4532;50.886;4.700;2023-07-13T04:52:00;18.70;95.80
8994;DHT22;4532;50.886;4.700;2023-07-13T04:54:32;18.80;95.90
8994;DHT22;4532;50.886;4.700;2023-07-13T04:57:02;18.80;95.90
8994;DHT22;4532;50.886;4.700;2023-07-13T04:59:32;18.80;95.80
8994;DHT22;4532;50.886;4.700;2023-07-13T05:02:04;18.80;95.90
8994;DHT22;4532;50.886;4.700;2023-07-13T05:04:34;18.80;95.90
8994;DHT22;4532;50.886;4.700;2023-07-13T05:07:09;18.90;96.00
8994;DHT22;4532;50.886;4.700;2023-07-13T05:09:39;18.90;96.00
8994;DHT22;4532;50.886;4.700;2023-07-13T05:12:08;18.90;96.10
8994;DHT22;4532;50.886;4.700;2023-07-13T05:14:38;19.00;96.10
8994;DHT22;4532;50.886;4.700;2023-07-13T05:17:07;19.00;96.10
8994;DHT22;4532;50.886;4.700;2023-07-13T05:19:35;19.10;96.30
8994;DHT22;4532;50.886;4.700;2023-07-13T05:22:05;19.10;96.20
8994;DHT22;4532;50.886;4.700;2023-07-13T05:24:32;19.10;96.30
8994;DHT22;4532;50.886;4.700;2023-07-13T05:27:02;19.10;96.40
8994;DHT22;4532;50.886;4.700;2023-07-13T05:29:29;19.20;96.50
8994;DHT22;4532;50.886;4.700;2023-07-13T05:32:01;19.30;96.40
8994;DHT22;4532;50.886;4.700;2023-07-13T05:34:31;19.30;96.60
8994;DHT22;4532;50.886;4.700;2023-07-13T05:37:01;19.40;96.60
8994;DHT22;4532;50.886;4.700;2023-07-13T05:39:28;19.40;96.50
8994;DHT22;4532;50.886;4.700;2023-07-13T05:42:01;19.40;96.60
8994;DHT22;4532;50.886;4.700;2023-07-13T05:44:28;19.40;96.60
8994;DHT22;4532;50.886;4.700;2023-07-13T05:46:55;19.50;96.60
8994;DHT22;4532;50.886;4.700;2023-07-13T05:49:23;19.50;96.80
8994;DHT22;4532;50.886;4.700;2023-07-13T05:51:53;19.60;96.80
8994;DHT22;4532;50.886;4.700;2023-07-13T05:54:20;19.60;96.80
8994;DHT22;4532;50.886;4.700;2023-07-13T05:56:47;19.70;96.90
8994;DHT22;4532;50.886;4.700;2023-07-13T05:59:15;19.70;96.80
8994;DHT22;4532;50.886;4.700;2023-07-13T06:01:42;19.70;96.90
8994;DHT22;4532;50.886;4.700;2023-07-13T06:04:12;19.70;96.90
8994;DHT22;4532;50.886;4.700;2023-07-13T06:06:41;19.80;97.00
8994;DHT22;4532;50.886;4.700;2023-07-13T06:09:10;19.80;97.10
8994;DHT22;4532;50.886;4.700;2023-07-13T06:11:40;19.80;97.00
8994;DHT22;4532;50.886;4.700;2023-07-13T06:14:10;19.90;97.10
8994;DHT22;4532;50.886;4.700;2023-07-13T06:16:40;19.90;97.10
8994;DHT22;4532;50.886;4.700;2023-07-13T06:19:10;19.90;97.20
8994;DHT22;4532;50.886;4.700;2023-07-13T06:21:40;20.00;97.20
8994;DHT22;4532;50.886;4.700;2023-07-13T06:24:09;20.00;97.20
8994;DHT22;4532;50.886;4.700;2023-07-13T06:26:37;20.00;97.20
8994;DHT22;4532;50.886;4.700;2023-07-13T06:29:04;20.10;97.40
8994;DHT22;4532;50.886;4.700;2023-07-13T06:31:36;20.10;97.30
8994;DHT22;4532;50.886;4.700;2023-07-13T06:34:06;20.10;97.70
8994;DHT22;4532;50.886;4.700;2023-07-13T06:36:38;20.20;97.30
8994;DHT22;4532;50.886;4.700;2023-07-13T06:39:10;20.20;97.40
8994;DHT22;4532;50.886;4.700;2023-07-13T06:41:38;20.20;97.30
8994;DHT22;4532;50.886;4.700;2023-07-13T06:44:05;20.20;97.40
8994;DHT22;4532;50.886;4.700;2023-07-13T06:46:35;20.20;97.40
8994;DHT22;4532;50.886;4.700;2023-07-13T06:49:05;20.20;97.50
8994;DHT22;4532;50.886;4.700;2023-07-13T06:51:32;20.30;97.50
8994;DHT22;4532;50.886;4.700;2023-07-13T06:53:59;20.30;97.60
8994;DHT22;4532;50.886;4.700;2023-07-13T06:56:29;20.40;97.60
8994;DHT22;4532;50.886;4.700;2023-07-13T06:59:01;20.50;98.00
8994;DHT22;4532;50.886;4.700;2023-07-13T07:01:28;20.50;97.70
8994;DHT22;4532;50.886;4.700;2023-07-13T07:04:00;20.60;97.80
8994;DHT22;4532;50.886;4.700;2023-07-13T07:06:30;20.70;97.90
8994;DHT22;4532;50.886;4.700;2023-07-13T07:08:57;20.80;98.00
8994;DHT22;4532;50.886;4.700;2023-07-13T07:11:26;20.90;98.00
8994;DHT22;4532;50.886;4.700;2023-07-13T07:13:56;21.00;98.00
8994;DHT22;4532;50.886;4.700;2023-07-13T07:16:28;21.00;98.20
8994;DHT22;4532;50.886;4.700;2023-07-13T07:18:58;21.10;98.20
8994;DHT22;4532;50.886;4.700;2023-07-13T07:21:27;21.20;98.30
8994;DHT22;4532;50.886;4.700;2023-07-13T07:23:54;21.30;98.30
8994;DHT22;4532;50.886;4.700;2023-07-13T07:26:24;21.30;98.30
8994;DHT22;4532;50.886;4.700;2023-07-13T07:28:56;21.40;98.40
8994;DHT22;4532;50.886;4.700;2023-07-13T07:31:26;21.50;98.40
8994;DHT22;4532;50.886;4.700;2023-07-13T07:33:56;21.60;98.40
8994;DHT22;4532;50.886;4.700;2023-07-13T07:36:23;21.60;98.40
8994;DHT22;4532;50.886;4.700;2023-07-13T07:38:58;21.70;98.50
8994;DHT22;4532;50.886;4.700;2023-07-13T07:41:32;21.80;98.60
8994;DHT22;4532;50.886;4.700;2023-07-13T07:44:02;21.80;98.50
8994;DHT22;4532;50.886;4.700;2023-07-13T07:46:33;21.90;98.50
8994;DHT22;4532;50.886;4.700;2023-07-13T07:49:00;21.90;98.50
8994;DHT22;4532;50.886;4.700;2023-07-13T07:51:27;21.90;98.40
8994;DHT22;4532;50.886;4.700;2023-07-13T07:53:58;21.90;98.50
8994;DHT22;4532;50.886;4.700;2023-07-13T07:56:25;21.90;98.50
8994;DHT22;4532;50.886;4.700;2023-07-13T07:58:55;21.90;98.40
8994;DHT22;4532;50.886;4.700;2023-07-13T08:01:26;22.00;98.50
8994;DHT22;4532;50.886;4.700;2023-07-13T08:03:58;22.00;98.50
8994;DHT22;4532;50.886;4.700;2023-07-13T08:06:31;22.00;98.60
8994;DHT22;4532;50.886;4.700;2023-07-13T08:09:03;22.00;98.50
8994;DHT22;4532;50.886;4.700;2023-07-13T08:11:36;22.10;98.40
8994;DHT22;4532;50.886;4.700;2023-07-13T08:14:10;22.10;98.40
8994;DHT22;4532;50.886;4.700;2023-07-13T08:16:37;22.10;98.40
8994;DHT22;4532;50.886;4.700;2023-07-13T08:19:05;22.10;98.40
8994;DHT22;4532;50.886;4.700;2023-07-13T08:21:33;22.20;98.40
8994;DHT22;4532;50.886;4.700;2023-07-13T08:24:03;22.20;98.40
8994;DHT22;4532;50.886;4.700;2023-07-13T08:26:32;22.20;98.40
8994;DHT22;4532;50.886;4.700;2023-07-13T08:28:59;22.20;98.50
8994;DHT22;4532;50.886;4.700;2023-07-13T08:31:29;22.30;98.50
8994;DHT22;4532;50.886;4.700;2023-07-13T08:33:56;22.30;98.50
8994;DHT22;4532;50.886;4.700;2023-07-13T08:36:25;22.30;98.50
8994;DHT22;4532;50.886;4.700;2023-07-13T08:38:58;22.30;98.50
8994;DHT22;4532;50.886;4.700;2023-07-13T08:41:55;22.20;98.40
8994;DHT22;4532;50.886;4.700;2023-07-13T08:47:22;22.30;98.50
8994;DHT22;4532;50.886;4.700;2023-07-13T08:49:56;22.30;98.50
8994;DHT22;4532;50.886;4.700;2023-07-13T08:52:36;22.40;98.50
8994;DHT22;4532;50.886;4.700;2023-07-13T08:55:12;22.40;98.50
8994;DHT22;4532;50.886;4.700;2023-07-13T08:57:45;22.40;98.50
8994;DHT22;4532;50.886;4.700;2023-07-13T09:00:16;22.40;98.30
8994;DHT22;4532;50.886;4.700;2023-07-13T09:05:38;22.50;98.50
8994;DHT22;4532;50.886;4.700;2023-07-13T09:10:44;22.60;98.40
8994;DHT22;4532;50.886;4.700;2023-07-13T09:13:38;22.60;98.40
8994;DHT22;4532;50.886;4.700;2023-07-13T09:16:09;22.70;98.20
8994;DHT22;4532;50.886;4.700;2023-07-13T09:18:48;22.60;98.20
8994;DHT22;4532;50.886;4.700;2023-07-13T09:24:04;22.60;97.90
8994;DHT22;4532;50.886;4.700;2023-07-13T09:26:41;22.50;97.90
8994;DHT22;4532;50.886;4.700;2023-07-13T09:29:23;22.50;98.00
8994;DHT22;4532;50.886;4.700;2023-07-13T09:32:00;22.60;98.00
8994;DHT22;4532;50.886;4.700;2023-07-13T09:34:28;22.60;98.00
8994;DHT22;4532;50.886;4.700;2023-07-13T09:36:57;22.60;98.10
8994;DHT22;4532;50.886;4.700;2023-07-13T09:39:30;22.60;97.90
8994;DHT22;4532;50.886;4.700;2023-07-13T09:44:43;22.60;97.90
8994;DHT22;4532;50.886;4.700;2023-07-13T09:47:24;22.60;97.90
8994;DHT22;4532;50.886;4.700;2023-07-13T09:49:57;22.70;97.90
8994;DHT22;4532;50.886;4.700;2023-07-13T09:53:00;22.70;98.00
8994;DHT22;4532;50.886;4.700;2023-07-13T09:57:55;22.70;98.10
8994;DHT22;4532;50.886;4.700;2023-07-13T10:00:28;22.80;98.10
8994;DHT22;4532;50.886;4.700;2023-07-13T10:05:44;22.90;97.90
8994;DHT22;4532;50.886;4.700;2023-07-13T10:08:28;23.00;98.00
8994;DHT22;4532;50.886;4.700;2023-07-13T10:11:09;23.00;98.00
8994;DHT22;4532;50.886;4.700;2023-07-13T10:13:42;23.00;98.20
8994;DHT22;4532;50.886;4.700;2023-07-13T10:16:09;23.00;98.00
8994;DHT22;4532;50.886;4.700;2023-07-13T10:18:42;23.00;98.00
8994;DHT22;4532;50.886;4.700;2023-07-13T10:23:50;23.20;98.00
8994;DHT22;4532;50.886;4.700;2023-07-13T10:26:26;23.10;97.80
8994;DHT22;4532;50.886;4.700;2023-07-13T10:28:59;23.20;98.30
8994;DHT22;4532;50.886;4.700;2023-07-13T10:31:32;23.20;97.90
8994;DHT22;4532;50.886;4.700;2023-07-13T10:34:02;23.30;98.00
8994;DHT22;4532;50.886;4.700;2023-07-13T10:36:46;23.30;97.80
8994;DHT22;4532;50.886;4.700;2023-07-13T10:39:20;23.30;97.70
8994;DHT22;4532;50.886;4.700;2023-07-13T10:42:01;23.30;97.70
8994;DHT22;4532;50.886;4.700;2023-07-13T10:44:33;23.30;97.80
8994;DHT22;4532;50.886;4.700;2023-07-13T10:47:16;23.30;98.10
8994;DHT22;4532;50.886;4.700;2023-07-13T10:49:48;23.40;97.90
8994;DHT22;4532;50.886;4.700;2023-07-13T10:55:40;23.50;97.90
8994;DHT22;4532;50.886;4.700;2023-07-13T10:58:15;23.60;97.60
8994;DHT22;4532;50.886;4.700;2023-07-13T11:01:19;23.60;97.70
8994;DHT22;4532;50.886;4.700;2023-07-13T11:03:49;23.70;97.70
8994;DHT22;4532;50.886;4.700;2023-07-13T11:11:50;23.90;97.60
8994;DHT22;4532;50.886;4.700;2023-07-13T11:15:15;23.90;97.50
8994;DHT22;4532;50.886;4.700;2023-07-13T11:25:40;24.20;97.50
8994;DHT22;4532;50.886;4.700;2023-07-13T11:30:59;24.20;97.00
8994;DHT22;4532;50.886;4.700;2023-07-13T11:36:16;24.10;97.00
8994;DHT22;4532;50.886;4.700;2023-07-13T11:39:02;24.10;97.00
8994;DHT22;4532;50.886;4.700;2023-07-13T11:41:43;24.10;97.10
8994;DHT22;4532;50.886;4.700;2023-07-13T11:44:18;24.10;97.10
8994;DHT22;4532;50.886;4.700;2023-07-13T11:46:53;24.20;96.90
8994;DHT22;4532;50.886;4.700;2023-07-13T11:49:29;24.20;97.00
8994;DHT22;4532;50.886;4.700;2023-07-13T11:52:02;24.30;97.10
8994;DHT22;4532;50.886;4.700;2023-07-13T11:54:34;24.30;96.90
8994;DHT22;4532;50.886;4.700;2023-07-13T11:57:26;24.30;96.80
8994;DHT22;4532;50.886;4.700;2023-07-13T11:59:55;24.40;96.40
8994;DHT22;4532;50.886;4.700;2023-07-13T12:02:31;24.40;96.30
8994;DHT22;4532;50.886;4.700;2023-07-13T12:05:01;24.30;96.30
8994;DHT22;4532;50.886;4.700;2023-07-13T12:07:35;24.30;96.30
8994;DHT22;4532;50.886;4.700;2023-07-13T12:12:58;24.30;96.10
8994;DHT22;4532;50.886;4.700;2023-07-13T12:15:43;24.30;96.10
8994;DHT22;4532;50.886;4.700;2023-07-13T12:18:19;24.40;96.20
8994;DHT22;4532;50.886;4.700;2023-07-13T12:20:50;24.30;96.20
8994;DHT22;4532;50.886;4.700;2023-07-13T12:23:23;24.30;96.00
8994;DHT22;4532;50.886;4.700;2023-07-13T12:25:55;24.30;96.00
8994;DHT22;4532;50.886;4.700;2023-07-13T12:31:31;24.30;95.60
8994;DHT22;4532;50.886;4.700;2023-07-13T12:34:09;24.30;95.90
8994;DHT22;4532;50.886;4.700;2023-07-13T12:36:45;24.20;95.90
8994;DHT22;4532;50.886;4.700;2023-07-13T12:39:19;24.30;95.80
8994;DHT22;4532;50.886;4.700;2023-07-13T12:41:52;24.30;95.80
8994;DHT22;4532;50.886;4.700;2023-07-13T12:44:29;24.30;96.10
8994;DHT22;4532;50.886;4.700;2023-07-13T12:47:02;24.30;96.00
8994;DHT22;4532;50.886;4.700;2023-07-13T12:49:34;24.30;96.00
8994;DHT22;4532;50.886;4.700;2023-07-13T12:52:12;24.30;96.00
8994;DHT22;4532;50.886;4.700;2023-07-13T12:54:41;24.30;95.90
8994;DHT22;4532;50.886;4.700;2023-07-13T12:57:21;24.10;96.10
8994;DHT22;4532;50.886;4.700;2023-07-13T12:59:54;24.10;96.20
8994;DHT22;4532;50.886;4.700;2023-07-13T13:02:32;24.00;96.30
8994;DHT22;4532;50.886;4.700;2023-07-13T13:05:03;23.90;96.30
8994;DHT22;4532;50.886;4.700;2023-07-13T13:07:34;23.80;96.20
8994;DHT22;4532;50.886;4.700;2023-07-13T13:10:12;23.80;96.20
8994;DHT22;4532;50.886;4.700;2023-07-13T13:12:40;23.70;96.20
8994;DHT22;4532;50.886;4.700;2023-07-13T13:15:10;23.70;96.30
8994;DHT22;4532;50.886;4.700;2023-07-13T13:17:41;23.60;96.40
8994;DHT22;4532;50.886;4.700;2023-07-13T13:20:16;23.50;96.50
8994;DHT22;4532;50.886;4.700;2023-07-13T13:22:43;23.40;96.50
8994;DHT22;4532;50.886;4.700;2023-07-13T13:25:11;23.30;96.50
8994;DHT22;4532;50.886;4.700;2023-07-13T13:27:43;23.20;96.90
8994;DHT22;4532;50.886;4.700;2023-07-13T13:30:13;23.20;96.80
8994;DHT22;4532;50.886;4.700;2023-07-13T13:32:42;23.10;96.90
8994;DHT22;4532;50.886;4.700;2023-07-13T13:35:20;23.00;96.70
8994;DHT22;4532;50.886;4.700;2023-07-13T13:37:50;23.00;97.10
8994;DHT22;4532;50.886;4.700;2023-07-13T13:40:21;23.00;96.80
8994;DHT22;4532;50.886;4.700;2023-07-13T13:42:53;22.90;96.80
8994;DHT22;4532;50.886;4.700;2023-07-13T13:45:26;22.90;96.80
8994;DHT22;4532;50.886;4.700;2023-07-13T13:47:56;22.90;96.90
8994;DHT22;4532;50.886;4.700;2023-07-13T13:50:24;22.90;97.00
8994;DHT22;4532;50.886;4.700;2023-07-13T13:52:51;22.90;97.00
8994;DHT22;4532;50.886;4.700;2023-07-13T13:55:21;23.00;97.10
8994;DHT22;4532;50.886;4.700;2023-07-13T13:57:51;23.00;97.10
8994;DHT22;4532;50.886;4.700;2023-07-13T14:00:20;23.10;97.20
8994;DHT22;4532;50.886;4.700;2023-07-13T14:02:52;23.20;97.20
8994;DHT22;4532;50.886;4.700;2023-07-13T14:05:23;23.20;97.10
8994;DHT22;4532;50.886;4.700;2023-07-13T14:07:53;23.20;97.00
8994;DHT22;4532;50.886;4.700;2023-07-13T14:10:23;23.30;97.10
8994;DHT22;4532;50.886;4.700;2023-07-13T14:12:56;23.30;97.10
8994;DHT22;4532;50.886;4.700;2023-07-13T14:15:27;23.40;97.20
8994;DHT22;4532;50.886;4.700;2023-07-13T14:18:00;23.40;97.20
8994;DHT22;4532;50.886;4.700;2023-07-13T14:20:27;23.50;97.30
8994;DHT22;4532;50.886;4.700;2023-07-13T14:23:01;23.60;97.30
8994;DHT22;4532;50.886;4.700;2023-07-13T14:25:28;23.70;97.40
8994;DHT22;4532;50.886;4.700;2023-07-13T14:27:58;23.80;97.40
8994;DHT22;4532;50.886;4.700;2023-07-13T14:30:37;23.90;97.40
8994;DHT22;4532;50.886;4.700;2023-07-13T14:33:09;24.00;97.20
8994;DHT22;4532;50.886;4.700;2023-07-13T14:35:39;24.00;97.30
8994;DHT22;4532;50.886;4.700;2023-07-13T14:38:15;24.10;97.30
8994;DHT22;4532;50.886;4.700;2023-07-13T14:40:44;24.20;97.40
8994;DHT22;4532;50.886;4.700;2023-07-13T14:43:12;24.20;97.20
8994;DHT22;4532;50.886;4.700;2023-07-13T14:45:49;24.20;97.20
8994;DHT22;4532;50.886;4.700;2023-07-13T14:48:22;24.30;97.30
8994;DHT22;4532;50.886;4.700;2023-07-13T14:50:59;24.30;97.30
8994;DHT22;4532;50.886;4.700;2023-07-13T14:53:27;24.40;97.50
8994;DHT22;4532;50.886;4.700;2023-07-13T14:55:57;24.50;97.50
8994;DHT22;4532;50.886;4.700;2023-07-13T14:58:26;24.60;97.50
8994;DHT22;4532;50.886;4.700;2023-07-13T15:01:00;24.60;97.50
8994;DHT22;4532;50.886;4.700;2023-07-13T15:03:28;24.70;97.30
8994;DHT22;4532;50.886;4.700;2023-07-13T15:05:58;24.70;97.30
8994;DHT22;4532;50.886;4.700;2023-07-13T15:08:25;24.70;97.00
8994;DHT22;4532;50.886;4.700;2023-07-13T15:10:54;24.80;97.20
8994;DHT22;4532;50.886;4.700;2023-07-13T15:13:26;24.70;97.10
8994;DHT22;4532;50.886;4.700;2023-07-13T15:15:55;24.70;97.00
8994;DHT22;4532;50.886;4.700;2023-07-13T15:18:25;24.80;97.10
8994;DHT22;4532;50.886;4.700;2023-07-13T15:20:56;24.80;97.10
8994;DHT22;4532;50.886;4.700;2023-07-13T15:23:29;24.80;97.00
8994;DHT22;4532;50.886;4.700;2023-07-13T15:25:56;24.90;97.20
8994;DHT22;4532;50.886;4.700;2023-07-13T15:28:24;25.00;97.20
8994;DHT22;4532;50.886;4.700;2023-07-13T15:30:51;25.00;97.20
8994;DHT22;4532;50.886;4.700;2023-07-13T15:33:26;25.10;97.10
8994;DHT22;4532;50.886;4.700;2023-07-13T15:35:56;25.10;96.90
8994;DHT22;4532;50.886;4.700;2023-07-13T15:38:29;25.20;97.00
8994;DHT22;4532;50.886;4.700;2023-07-13T15:40:59;25.30;97.00
8994;DHT22;4532;50.886;4.700;2023-07-13T15:43:34;25.30;97.00
8994;DHT22;4532;50.886;4.700;2023-07-13T15:46:03;25.40;97.00
8994;DHT22;4532;50.886;4.700;2023-07-13T15:48:33;25.50;97.00
8994;DHT22;4532;50.886;4.700;2023-07-13T15:51:02;25.50;96.90
8994;DHT22;4532;50.886;4.700;2023-07-13T15:53:34;25.50;96.90
8994;DHT22;4532;50.886;4.700;2023-07-13T15:56:04;25.60;97.00
8994;DHT22;4532;50.886;4.700;2023-07-13T15:58:38;25.70;97.20
8994;DHT22;4532;50.886;4.700;2023-07-13T16:01:10;25.80;97.20
8994;DHT22;4532;50.886;4.700;2023-07-13T16:03:37;25.90;97.00
8994;DHT22;4532;50.886;4.700;2023-07-13T16:06:23;26.00;97.20
8994;DHT22;4532;50.886;4.700;2023-07-13T16:08:55;26.10;96.80
8994;DHT22;4532;50.886;4.700;2023-07-13T16:11:25;26.10;96.90
8994;DHT22;4532;50.886;4.700;2023-07-13T16:13:55;26.10;96.90
8994;DHT22;4532;50.886;4.700;2023-07-13T16:16:25;26.10;96.90
8994;DHT22;4532;50.886;4.700;2023-07-13T16:19:03;26.20;96.80
8994;DHT22;4532;50.886;4.700;2023-07-13T16:21:35;26.20;96.90
8994;DHT22;4532;50.886;4.700;2023-07-13T16:24:08;26.20;96.40
8994;DHT22;4532;50.886;4.700;2023-07-13T16:26:41;26.30;96.50
8994;DHT22;4532;50.886;4.700;2023-07-13T16:29:26;26.40;97.10
8994;DHT22;4532;50.886;4.700;2023-07-13T16:31:57;26.40;96.70
8994;DHT22;4532;50.886;4.700;2023-07-13T16:34:28;26.50;96.60
8994;DHT22;4532;50.886;4.700;2023-07-13T16:36:56;26.60;96.70
8994;DHT22;4532;50.886;4.700;2023-07-13T16:39:27;26.60;96.60
8994;DHT22;4532;50.886;4.700;2023-07-13T16:41:57;26.60;96.30
8994;DHT22;4532;50.886;4.700;2023-07-13T16:44:28;26.60;96.40
8994;DHT22;4532;50.886;4.700;2023-07-13T16:47:00;26.70;96.30
8994;DHT22;4532;50.886;4.700;2023-07-13T16:49:34;26.60;96.30
8994;DHT22;4532;50.886;4.700;2023-07-13T16:52:08;26.70;96.40
8994;DHT22;4532;50.886;4.700;2023-07-13T16:54:41;26.60;95.80
8994;DHT22;4532;50.886;4.700;2023-07-13T16:57:23;26.60;96.00
8994;DHT22;4532;50.886;4.700;2023-07-13T16:59:53;26.70;95.60
8994;DHT22;4532;50.886;4.700;2023-07-13T17:04:55;26.60;96.00
8994;DHT22;4532;50.886;4.700;2023-07-13T17:07:26;26.60;95.60
8994;DHT22;4532;50.886;4.700;2023-07-13T17:09:53;26.50;95.80
8994;DHT22;4532;50.886;4.700;2023-07-13T17:12:25;26.60;95.70
8994;DHT22;4532;50.886;4.700;2023-07-13T17:15:00;26.50;95.40
8994;DHT22;4532;50.886;4.700;2023-07-13T17:17:33;26.40;95.30
8994;DHT22;4532;50.886;4.700;2023-07-13T17:20:05;26.40;95.50
8994;DHT22;4532;50.886;4.700;2023-07-13T17:22:46;26.30;95.50